sensor_id;sensor_type;location;lat;lon;timestamp;temperature;humidity
23186;DHT22;11761;51.324;4.590;2023-02-28T00:00:07;-2.40;99.90
23186;DHT22;11761;51.324;4.590;2023-02-28T00:02:37;-2.40;99.90
23186;DHT22;11761;51.324;4.590;2023-02-28T00:05:04;-2.50;99.90
23186;DHT22;11761;51.324;4.590;2023-02-28T00:07:31;-2.50;99.90
23186;DHT22;11761;51.324;4.590;2023-02-28T00:09:57;-2.50;99.90
23186;DHT22;11761;51.324;4.590;2023-02-28T00:12:24;-2.60;99.90
23186;DHT22;11761;51.324;4.590;2023-02-28T00:14:50;-2.60;99.90
23186;DHT22;11761;51.324;4.590;2023-02-28T00:17:17;-2.50;99.90
23186;DHT22;11761;51.324;4.590;2023-02-28T00:19:50;-2.60;99.90
23186;DHT22;11761;51.324;4.590;2023-02-28T00:22:18;-2.50;99.90
23186;DHT22;11761;51.324;4.590;2023-02-28T00:24:45;-2.50;99.90
23186;DHT22;11761;51.324;4.590;2023-02-28T00:27:14;-2.50;99.90
23186;DHT22;11761;51.324;4.590;2023-02-28T00:29:40;-2.30;99.90
23186;DHT22;11761;51.324;4.590;2023-02-28T00:32:07;-2.40;99.90
23186;DHT22;11761;51.324;4.590;2023-02-28T00:34:33;-2.30;99.90
23186;DHT22;11761;51.324;4.590;2023-02-28T00:37:05;-2.30;99.90
23186;DHT22;11761;51.324;4.590;2023-02-28T00:39:34;-2.30;99.90
23186;DHT22;11761;51.324;4.590;2023-02-28T00:42:00;-2.40;99.90
23186;DHT22;11761;51.324;4.590;2023-02-28T00:44:26;-2.30;99.90
23186;DHT22;11761;51.324;4.590;2023-02-28T00:46:53;-2.30;99.90
23186;DHT22;11761;51.324;4.590;2023-02-28T00:49:20;-2.20;99.90
23186;DHT22;11761;51.324;4.590;2023-02-28T00:51:46;-2.30;99.90
23186;DHT22;11761;51.324;4.590;2023-02-28T00:54:12;-2.30;99.90
23186;DHT22;11761;51.324;4.590;2023-02-28T00:56:38;-2.30;99.90
23186;DHT22;11761;51.324;4.590;2023-02-28T00:59:05;-2.30;99.90
23186;DHT22;11761;51.324;4.590;2023-02-28T01:01:31;-2.30;99.90
23186;DHT22;11761;51.324;4.590;2023-02-28T01:03:57;-2.30;99.90
23186;DHT22;11761;51.324;4.590;2023-02-28T01:06:23;-2.40;99.90
23186;DHT22;11761;51.324;4.590;2023-02-28T01:08:49;-2.40;99.90
23186;DHT22;11761;51.324;4.590;2023-02-28T01:11:17;-2.40;99.90
23186;DHT22;11761;51.324;4.590;2023-02-28T01:13:45;-2.40;99.90
23186;DHT22;11761;51.324;4.590;2023-02-28T01:16:11;-2.40;99.90
23186;DHT22;11761;51.324;4.590;2023-02-28T01:18:38;-2.40;99.90
23186;DHT22;11761;51.324;4.590;2023-02-28T01:21:08;-2.50;99.90
23186;DHT22;11761;51.324;4.590;2023-02-28T01:23:35;-2.50;99.90
23186;DHT22;11761;51.324;4.590;2023-02-28T01:26:09;-2.50;99.90
23186;DHT22;11761;51.324;4.590;2023-02-28T01:28:36;-2.50;99.90
23186;DHT22;11761;51.324;4.590;2023-02-28T01:31:02;-2.50;99.90
23186;DHT22;11761;51.324;4.590;2023-02-28T01:33:28;-2.50;99.90
23186;DHT22;11761;51.324;4.590;2023-02-28T01:36:07;-2.50;99.90
23186;DHT22;11761;51.324;4.590;2023-02-28T01:38:34;-2.50;99.90
23186;DHT22;11761;51.324;4.590;2023-02-28T01:41:01;-2.50;99.90
23186;DHT22;11761;51.324;4.590;2023-02-28T01:43:32;-2.50;99.90
23186;DHT22;11761;51.324;4.590;2023-02-28T01:45:58;-2.40;99.90
23186;DHT22;11761;51.324;4.590;2023-02-28T01:48:31;-2.40;99.90
23186;DHT22;11761;51.324;4.590;2023-02-28T01:51:03;-2.30;99.90
23186;DHT22;11761;51.324;4.590;2023-02-28T01:53:53;-2.30;99.90
23186;DHT22;11761;51.324;4.590;2023-02-28T01:56:24;-2.30;99.90
23186;DHT22;11761;51.324;4.590;2023-02-28T01:58:52;-2.30;99.90
23186;DHT22;11761;51.324;4.590;2023-02-28T02:01:20;-2.40;99.90
23186;DHT22;11761;51.324;4.590;2023-02-28T02:04:01;-2.40;99.90
23186;DHT22;11761;51.324;4.590;2023-02-28T02:06:34;-2.50;99.90
23186;DHT22;11761;51.324;4.590;2023-02-28T02:09:02;-2.50;99.90
23186;DHT22;11761;51.324;4.590;2023-02-28T02:11:28;-2.60;99.90
23186;DHT22;11761;51.324;4.590;2023-02-28T02:16:45;-2.70;99.90
23186;DHT22;11761;51.324;4.590;2023-02-28T02:25:36;-2.70;99.90
23186;DHT22;11761;51.324;4.590;2023-02-28T02:31:05;-2.80;99.90
23186;DHT22;11761;51.324;4.590;2023-02-28T02:36:06;-2.70;99.90
23186;DHT22;11761;51.324;4.590;2023-02-28T02:41:18;-2.70;99.90
23186;DHT22;11761;51.324;4.590;2023-02-28T02:43:51;-2.60;99.90
23186;DHT22;11761;51.324;4.590;2023-02-28T02:46:28;-2.50;99.90
23186;DHT22;11761;51.324;4.590;2023-02-28T02:48:56;-2.30;99.90
23186;DHT22;11761;51.324;4.590;2023-02-28T02:51:26;-2.20;99.90
23186;DHT22;11761;51.324;4.590;2023-02-28T02:54:11;-2.00;99.90
23186;DHT22;11761;51.324;4.590;2023-02-28T02:56:43;-1.90;99.90
23186;DHT22;11761;51.324;4.590;2023-02-28T02:59:13;-1.80;99.90
23186;DHT22;11761;51.324;4.590;2023-02-28T03:01:41;-1.80;99.90
23186;DHT22;11761;51.324;4.590;2023-02-28T03:04:18;-1.70;99.90
23186;DHT22;11761;51.324;4.590;2023-02-28T03:06:45;-1.60;99.90
23186;DHT22;11761;51.324;4.590;2023-02-28T03:09:11;-1.50;99.90
23186;DHT22;11761;51.324;4.590;2023-02-28T03:11:37;-1.40;99.90
23186;DHT22;11761;51.324;4.590;2023-02-28T03:27:38;-0.70;99.90
23186;DHT22;11761;51.324;4.590;2023-02-28T03:30:24;-0.60;99.90
23186;DHT22;11761;51.324;4.590;2023-02-28T03:35:44;-0.50;99.90
23186;DHT22;11761;51.324;4.590;2023-02-28T03:38:16;-0.40;99.90
23186;DHT22;11761;51.324;4.590;2023-02-28T03:40:48;-0.40;99.90
23186;DHT22;11761;51.324;4.590;2023-02-28T03:43:24;-0.40;99.90
23186;DHT22;11761;51.324;4.590;2023-02-28T03:45:55;-0.30;99.90
23186;DHT22;11761;51.324;4.590;2023-02-28T03:48:43;-0.30;99.90
23186;DHT22;11761;51.324;4.590;2023-02-28T03:51:14;-0.30;99.90
23186;DHT22;11761;51.324;4.590;2023-02-28T03:53:48;-0.20;99.90
23186;DHT22;11761;51.324;4.590;2023-02-28T03:56:22;-0.20;99.90
23186;DHT22;11761;51.324;4.590;2023-02-28T03:59:28;-0.20;99.90
23186;DHT22;11761;51.324;4.590;2023-02-28T04:01:57;-0.10;99.90
23186;DHT22;11761;51.324;4.590;2023-02-28T04:04:24;-0.10;99.90
23186;DHT22;11761;51.324;4.590;2023-02-28T04:06:51;-0.10;99.90
23186;DHT22;11761;51.324;4.590;2023-02-28T04:09:18;0.00;99.90
23186;DHT22;11761;51.324;4.590;2023-02-28T04:11:52;0.00;99.90
23186;DHT22;11761;51.324;4.590;2023-02-28T04:14:18;0.00;99.90
23186;DHT22;11761;51.324;4.590;2023-02-28T04:16:45;0.00;99.90
23186;DHT22;11761;51.324;4.590;2023-02-28T04:19:12;0.10;99.90
23186;DHT22;11761;51.324;4.590;2023-02-28T04:21:41;0.10;99.90
23186;DHT22;11761;51.324;4.590;2023-02-28T04:24:11;0.10;99.90
23186;DHT22;11761;51.324;4.590;2023-02-28T04:26:41;0.20;99.90
23186;DHT22;11761;51.324;4.590;2023-02-28T04:29:10;0.30;99.90
23186;DHT22;11761;51.324;4.590;2023-02-28T04:31:36;0.40;99.90
23186;DHT22;11761;51.324;4.590;2023-02-28T04:34:02;0.40;99.90
23186;DHT22;11761;51.324;4.590;2023-02-28T04:36:29;0.40;99.90
23186;DHT22;11761;51.324;4.590;2023-02-28T04:38:55;0.40;99.90
23186;DHT22;11761;51.324;4.590;2023-02-28T04:41:23;0.40;99.90
23186;DHT22;11761;51.324;4.590;2023-02-28T04:43:51;0.40;99.90
23186;DHT22;11761;51.324;4.590;2023-02-28T04:46:19;0.40;99.90
23186;DHT22;11761;51.324;4.590;2023-02-28T04:48:45;0.50;99.90
23186;DHT22;11761;51.324;4.590;2023-02-28T04:51:14;0.50;99.90
23186;DHT22;11761;51.324;4.590;2023-02-28T04:53:41;0.50;99.90
23186;DHT22;11761;51.324;4.590;2023-02-28T04:56:10;0.50;99.90
23186;DHT22;11761;51.324;4.590;2023-02-28T04:58:37;0.50;99.90
23186;DHT22;11761;51.324;4.590;2023-02-28T05:01:05;0.50;99.90
23186;DHT22;11761;51.324;4.590;2023-02-28T05:03:42;0.50;99.90
23186;DHT22;11761;51.324;4.590;2023-02-28T05:06:10;0.50;99.90
23186;DHT22;11761;51.324;4.590;2023-02-28T05:08:36;0.50;99.90
23186;DHT22;11761;51.324;4.590;2023-02-28T05:11:03;0.60;99.90
23186;DHT22;11761;51.324;4.590;2023-02-28T05:13:29;0.60;99.90
23186;DHT22;11761;51.324;4.590;2023-02-28T05:15:56;0.60;99.90
23186;DHT22;11761;51.324;4.590;2023-02-28T05:18:22;0.60;99.90
23186;DHT22;11761;51.324;4.590;2023-02-28T05:20:48;0.60;99.90
23186;DHT22;11761;51.324;4.590;2023-02-28T05:23:15;0.60;99.90
23186;DHT22;11761;51.324;4.590;2023-02-28T05:25:42;0.70;99.90
23186;DHT22;11761;51.324;4.590;2023-02-28T05:28:08;0.80;99.90
23186;DHT22;11761;51.324;4.590;2023-02-28T05:30:34;0.80;99.90
23186;DHT22;11761;51.324;4.590;2023-02-28T05:33:00;1.00;99.90
23186;DHT22;11761;51.324;4.590;2023-02-28T05:35:27;1.10;99.90
23186;DHT22;11761;51.324;4.590;2023-02-28T05:37:53;1.10;99.90
23186;DHT22;11761;51.324;4.590;2023-02-28T05:40:19;1.20;99.90
23186;DHT22;11761;51.324;4.590;2023-02-28T05:42:49;1.20;99.90
23186;DHT22;11761;51.324;4.590;2023-02-28T05:45:15;1.10;99.90
23186;DHT22;11761;51.324;4.590;2023-02-28T05:47:42;1.10;99.90
23186;DHT22;11761;51.324;4.590;2023-02-28T05:50:09;1.10;99.90
23186;DHT22;11761;51.324;4.590;2023-02-28T05:52:36;1.10;99.90
23186;DHT22;11761;51.324;4.590;2023-02-28T05:55:03;1.20;99.90
23186;DHT22;11761;51.324;4.590;2023-02-28T05:57:29;1.20;99.90
23186;DHT22;11761;51.324;4.590;2023-02-28T05:59:55;1.30;99.90
23186;DHT22;11761;51.324;4.590;2023-02-28T06:02:21;1.30;99.90
23186;DHT22;11761;51.324;4.590;2023-02-28T06:04:47;1.20;99.90
23186;DHT22;11761;51.324;4.590;2023-02-28T06:07:14;1.30;99.90
23186;DHT22;11761;51.324;4.590;2023-02-28T06:09:40;1.30;99.90
23186;DHT22;11761;51.324;4.590;2023-02-28T06:12:07;1.30;99.90
23186;DHT22;11761;51.324;4.590;2023-02-28T06:14:35;1.30;99.90
23186;DHT22;11761;51.324;4.590;2023-02-28T06:17:02;1.30;99.90
23186;DHT22;11761;51.324;4.590;2023-02-28T06:19:29;1.30;99.90
23186;DHT22;11761;51.324;4.590;2023-02-28T06:21:56;1.20;99.90
23186;DHT22;11761;51.324;4.590;2023-02-28T06:24:24;1.30;99.90
23186;DHT22;11761;51.324;4.590;2023-02-28T06:26:50;1.30;99.90
23186;DHT22;11761;51.324;4.590;2023-02-28T06:29:17;1.20;99.90
23186;DHT22;11761;51.324;4.590;2023-02-28T06:31:47;1.30;99.90
23186;DHT22;11761;51.324;4.590;2023-02-28T06:34:13;1.30;99.90
23186;DHT22;11761;51.324;4.590;2023-02-28T06:36:42;1.30;99.90
23186;DHT22;11761;51.324;4.590;2023-02-28T06:39:08;1.30;99.90
23186;DHT22;11761;51.324;4.590;2023-02-28T06:41:35;1.30;99.90
23186;DHT22;11761;51.324;4.590;2023-02-28T06:44:13;1.30;99.90
23186;DHT22;11761;51.324;4.590;2023-02-28T06:46:40;1.30;99.90
23186;DHT22;11761;51.324;4.590;2023-02-28T06:49:07;1.30;99.90
23186;DHT22;11761;51.324;4.590;2023-02-28T06:51:40;1.30;99.90
23186;DHT22;11761;51.324;4.590;2023-02-28T06:54:07;1.30;99.90
23186;DHT22;11761;51.324;4.590;2023-02-28T06:56:37;1.30;99.90
23186;DHT22;11761;51.324;4.590;2023-02-28T06:59:03;1.30;99.90
23186;DHT22;11761;51.324;4.590;2023-02-28T07:01:30;1.30;99.90
23186;DHT22;11761;51.324;4.590;2023-02-28T07:03:58;1.30;99.90
23186;DHT22;11761;51.324;4.590;2023-02-28T07:06:26;1.30;99.90
23186;DHT22;11761;51.324;4.590;2023-02-28T07:08:53;1.40;99.90
23186;DHT22;11761;51.324;4.590;2023-02-28T07:11:22;1.50;99.90
23186;DHT22;11761;51.324;4.590;2023-02-28T07:13:49;1.50;99.90
23186;DHT22;11761;51.324;4.590;2023-02-28T07:16:16;1.60;99.90
23186;DHT22;11761;51.324;4.590;2023-02-28T07:18:42;1.60;99.90
23186;DHT22;11761;51.324;4.590;2023-02-28T07:21:10;1.70;99.90
23186;DHT22;11761;51.324;4.590;2023-02-28T07:23:37;1.70;99.90
23186;DHT22;11761;51.324;4.590;2023-02-28T07:26:11;1.70;99.90
23186;DHT22;11761;51.324;4.590;2023-02-28T07:28:43;1.80;99.90
23186;DHT22;11761;51.324;4.590;2023-02-28T07:31:11;1.80;99.90
23186;DHT22;11761;51.324;4.590;2023-02-28T07:33:37;1.80;99.90
23186;DHT22;11761;51.324;4.590;2023-02-28T07:36:14;1.80;99.90
23186;DHT22;11761;51.324;4.590;2023-02-28T07:38:45;1.90;99.90
23186;DHT22;11761;51.324;4.590;2023-02-28T07:41:15;2.00;99.90
23186;DHT22;11761;51.324;4.590;2023-02-28T07:43:41;1.90;99.90
23186;DHT22;11761;51.324;4.590;2023-02-28T07:46:09;2.00;99.90
23186;DHT22;11761;51.324;4.590;2023-02-28T07:48:36;2.00;99.90
23186;DHT22;11761;51.324;4.590;2023-02-28T07:51:03;2.20;99.90
23186;DHT22;11761;51.324;4.590;2023-02-28T07:53:29;2.10;99.90
23186;DHT22;11761;51.324;4.590;2023-02-28T07:55:57;2.20;99.90
23186;DHT22;11761;51.324;4.590;2023-02-28T07:58:23;2.20;99.90
23186;DHT22;11761;51.324;4.590;2023-02-28T08:00:50;2.30;99.90
23186;DHT22;11761;51.324;4.590;2023-02-28T08:03:18;2.30;99.90
23186;DHT22;11761;51.324;4.590;2023-02-28T08:05:44;2.40;99.90
23186;DHT22;11761;51.324;4.590;2023-02-28T08:08:11;2.60;99.90
23186;DHT22;11761;51.324;4.590;2023-02-28T08:10:37;2.90;99.90
23186;DHT22;11761;51.324;4.590;2023-02-28T08:13:04;2.90;99.90
23186;DHT22;11761;51.324;4.590;2023-02-28T08:15:50;3.20;99.90
23186;DHT22;11761;51.324;4.590;2023-02-28T08:18:16;3.20;99.90
23186;DHT22;11761;51.324;4.590;2023-02-28T08:20:42;3.30;99.90
23186;DHT22;11761;51.324;4.590;2023-02-28T08:23:08;3.30;99.90
23186;DHT22;11761;51.324;4.590;2023-02-28T08:25:34;3.70;99.90
23186;DHT22;11761;51.324;4.590;2023-02-28T08:28:00;4.00;99.90
23186;DHT22;11761;51.324;4.590;2023-02-28T08:30:26;3.80;99.90
23186;DHT22;11761;51.324;4.590;2023-02-28T08:32:52;4.00;99.90
23186;DHT22;11761;51.324;4.590;2023-02-28T08:35:19;4.20;99.90
23186;DHT22;11761;51.324;4.590;2023-02-28T08:37:47;3.80;99.90
23186;DHT22;11761;51.324;4.590;2023-02-28T08:40:14;3.60;99.90
23186;DHT22;11761;51.324;4.590;2023-02-28T08:42:45;3.70;99.90
23186;DHT22;11761;51.324;4.590;2023-02-28T08:45:12;3.90;99.90
23186;DHT22;11761;51.324;4.590;2023-02-28T08:47:38;4.00;99.90
23186;DHT22;11761;51.324;4.590;2023-02-28T08:50:05;3.80;99.90
23186;DHT22;11761;51.324;4.590;2023-02-28T08:52:32;3.40;99.90
23186;DHT22;11761;51.324;4.590;2023-02-28T08:54:58;3.20;99.90
23186;DHT22;11761;51.324;4.590;2023-02-28T08:57:24;3.20;99.90
23186;DHT22;11761;51.324;4.590;2023-02-28T08:59:52;3.30;99.90
23186;DHT22;11761;51.324;4.590;2023-02-28T09:02:18;5.10;99.90
23186;DHT22;11761;51.324;4.590;2023-02-28T09:04:44;5.40;99.90
23186;DHT22;11761;51.324;4.590;2023-02-28T09:07:12;6.00;99.90
23186;DHT22;11761;51.324;4.590;2023-02-28T09:09:38;6.20;99.90
23186;DHT22;11761;51.324;4.590;2023-02-28T09:12:21;4.90;99.90
23186;DHT22;11761;51.324;4.590;2023-02-28T09:14:47;5.00;99.90
23186;DHT22;11761;51.324;4.590;2023-02-28T09:17:14;5.10;99.90
23186;DHT22;11761;51.324;4.590;2023-02-28T09:19:40;4.80;99.90
23186;DHT22;11761;51.324;4.590;2023-02-28T09:22:07;4.80;99.90
23186;DHT22;11761;51.324;4.590;2023-02-28T09:24:33;5.60;99.90
23186;DHT22;11761;51.324;4.590;2023-02-28T09:26:59;5.90;99.90
23186;DHT22;11761;51.324;4.590;2023-02-28T09:29:25;5.30;99.90
23186;DHT22;11761;51.324;4.590;2023-02-28T09:31:51;6.30;99.90
23186;DHT22;11761;51.324;4.590;2023-02-28T09:34:17;6.00;99.90
23186;DHT22;11761;51.324;4.590;2023-02-28T09:36:43;6.00;99.90
23186;DHT22;11761;51.324;4.590;2023-02-28T09:39:09;6.60;99.90
23186;DHT22;11761;51.324;4.590;2023-02-28T09:41:44;6.80;99.90
23186;DHT22;11761;51.324;4.590;2023-02-28T09:46:48;5.60;99.90
23186;DHT22;11761;51.324;4.590;2023-02-28T09:49:18;6.10;99.90
23186;DHT22;11761;51.324;4.590;2023-02-28T09:54:23;6.50;99.90
23186;DHT22;11761;51.324;4.590;2023-02-28T09:56:59;6.90;99.90
23186;DHT22;11761;51.324;4.590;2023-02-28T10:06:11;5.50;99.90
23186;DHT22;11761;51.324;4.590;2023-02-28T10:11:23;5.40;99.90
23186;DHT22;11761;51.324;4.590;2023-02-28T10:13:56;5.90;99.90
23186;DHT22;11761;51.324;4.590;2023-02-28T10:16:31;5.70;99.90
23186;DHT22;11761;51.324;4.590;2023-02-28T10:22:08;4.90;99.90
23186;DHT22;11761;51.324;4.590;2023-02-28T10:24:47;5.40;99.90
23186;DHT22;11761;51.324;4.590;2023-02-28T10:27:18;5.20;99.90
23186;DHT22;11761;51.324;4.590;2023-02-28T10:29:48;5.10;99.90
23186;DHT22;11761;51.324;4.590;2023-02-28T10:32:27;5.10;99.90
23186;DHT22;11761;51.324;4.590;2023-02-28T10:35:00;5.10;99.90
23186;DHT22;11761;51.324;4.590;2023-02-28T10:37:27;5.20;99.90
23186;DHT22;11761;51.324;4.590;2023-02-28T10:39:53;5.20;99.90
23186;DHT22;11761;51.324;4.590;2023-02-28T10:42:25;5.40;99.90
23186;DHT22;11761;51.324;4.590;2023-02-28T10:45:15;5.20;99.90
23186;DHT22;11761;51.324;4.590;2023-02-28T10:48:01;5.00;99.90
23186;DHT22;11761;51.324;4.590;2023-02-28T10:56:14;5.20;99.90
23186;DHT22;11761;51.324;4.590;2023-02-28T10:58:55;5.50;99.90
23186;DHT22;11761;51.324;4.590;2023-02-28T11:01:45;5.60;99.90
23186;DHT22;11761;51.324;4.590;2023-02-28T11:06:48;5.90;99.90
23186;DHT22;11761;51.324;4.590;2023-02-28T11:09:30;5.90;99.90
23186;DHT22;11761;51.324;4.590;2023-02-28T11:11:57;5.50;99.90
23186;DHT22;11761;51.324;4.590;2023-02-28T11:14:32;5.90;99.90
23186;DHT22;11761;51.324;4.590;2023-02-28T11:17:14;6.30;99.90
23186;DHT22;11761;51.324;4.590;2023-02-28T11:19:48;5.60;99.90
23186;DHT22;11761;51.324;4.590;2023-02-28T11:22:22;5.40;98.80
23186;DHT22;11761;51.324;4.590;2023-02-28T11:24:53;5.60;99.90
23186;DHT22;11761;51.324;4.590;2023-02-28T11:30:00;5.70;98.60
23186;DHT22;11761;51.324;4.590;2023-02-28T11:32:31;6.20;99.40
23186;DHT22;11761;51.324;4.590;2023-02-28T11:37:37;6.20;97.10
23186;DHT22;11761;51.324;4.590;2023-02-28T11:46:39;6.30;98.00
23186;DHT22;11761;51.324;4.590;2023-02-28T12:11:45;6.20;94.60
23186;DHT22;11761;51.324;4.590;2023-02-28T12:19:37;7.00;93.50
23186;DHT22;11761;51.324;4.590;2023-02-28T12:22:30;7.20;93.40
23186;DHT22;11761;51.324;4.590;2023-02-28T12:27:40;6.40;93.40
23186;DHT22;11761;51.324;4.590;2023-02-28T12:30:22;6.40;94.50
23186;DHT22;11761;51.324;4.590;2023-02-28T12:33:04;6.40;95.10
23186;DHT22;11761;51.324;4.590;2023-02-28T12:35:51;6.80;94.00
23186;DHT22;11761;51.324;4.590;2023-02-28T12:38:27;6.70;93.90
23186;DHT22;11761;51.324;4.590;2023-02-28T12:41:00;6.70;93.40
23186;DHT22;11761;51.324;4.590;2023-02-28T12:43:57;6.70;94.00
23186;DHT22;11761;51.324;4.590;2023-02-28T12:46:29;6.50;93.50
23186;DHT22;11761;51.324;4.590;2023-02-28T12:49:00;6.60;94.20
23186;DHT22;11761;51.324;4.590;2023-02-28T12:51:28;6.80;94.50
23186;DHT22;11761;51.324;4.590;2023-02-28T12:54:35;6.70;93.30
23186;DHT22;11761;51.324;4.590;2023-02-28T12:59:51;6.70;93.20
23186;DHT22;11761;51.324;4.590;2023-02-28T13:15:25;6.60;94.20
23186;DHT22;11761;51.324;4.590;2023-02-28T13:17:56;7.00;92.90
23186;DHT22;11761;51.324;4.590;2023-02-28T13:20:33;8.40;92.90
23186;DHT22;11761;51.324;4.590;2023-02-28T13:23:01;7.70;92.80
23186;DHT22;11761;51.324;4.590;2023-02-28T13:28:08;7.20;92.50
23186;DHT22;11761;51.324;4.590;2023-02-28T13:33:32;6.70;93.70
23186;DHT22;11761;51.324;4.590;2023-02-28T13:38:42;7.00;93.30
23186;DHT22;11761;51.324;4.590;2023-02-28T13:44:20;6.90;93.10
23186;DHT22;11761;51.324;4.590;2023-02-28T13:49:31;7.30;92.50
23186;DHT22;11761;51.324;4.590;2023-02-28T14:06:29;7.50;91.60
23186;DHT22;11761;51.324;4.590;2023-02-28T14:09:03;7.10;91.70
23186;DHT22;11761;51.324;4.590;2023-02-28T14:11:36;7.10;93.00
23186;DHT22;11761;51.324;4.590;2023-02-28T14:14:06;7.40;92.40
23186;DHT22;11761;51.324;4.590;2023-02-28T14:17:17;7.80;91.90
23186;DHT22;11761;51.324;4.590;2023-02-28T14:19:45;7.50;92.70
23186;DHT22;11761;51.324;4.590;2023-02-28T14:25:10;6.30;92.50
23186;DHT22;11761;51.324;4.590;2023-02-28T14:34:25;6.60;92.60
23186;DHT22;11761;51.324;4.590;2023-02-28T14:36:53;7.20;92.40
23186;DHT22;11761;51.324;4.590;2023-02-28T14:39:23;6.80;92.50
23186;DHT22;11761;51.324;4.590;2023-02-28T14:41:50;7.50;92.70
23186;DHT22;11761;51.324;4.590;2023-02-28T14:44:26;6.50;92.70
23186;DHT22;11761;51.324;4.590;2023-02-28T14:47:15;6.90;92.70
23186;DHT22;11761;51.324;4.590;2023-02-28T14:49:44;6.60;91.70
23186;DHT22;11761;51.324;4.590;2023-02-28T14:52:20;6.60;92.30
23186;DHT22;11761;51.324;4.590;2023-02-28T14:55:12;6.60;92.60
23186;DHT22;11761;51.324;4.590;2023-02-28T14:57:41;6.40;92.60
23186;DHT22;11761;51.324;4.590;2023-02-28T15:00:31;6.80;92.80
23186;DHT22;11761;51.324;4.590;2023-02-28T15:03:01;6.70;93.20
23186;DHT22;11761;51.324;4.590;2023-02-28T15:05:52;6.70;93.80
23186;DHT22;11761;51.324;4.590;2023-02-28T15:08:20;6.70;92.40
23186;DHT22;11761;51.324;4.590;2023-02-28T15:10:58;6.40;93.30
23186;DHT22;11761;51.324;4.590;2023-02-28T15:13:36;6.00;93.40
23186;DHT22;11761;51.324;4.590;2023-02-28T15:16:28;5.70;94.20
23186;DHT22;11761;51.324;4.590;2023-02-28T15:19:21;5.70;94.00
23186;DHT22;11761;51.324;4.590;2023-02-28T15:21:58;5.70;94.70
23186;DHT22;11761;51.324;4.590;2023-02-28T15:24:37;5.70;95.10
23186;DHT22;11761;51.324;4.590;2023-02-28T15:27:20;5.50;94.10
23186;DHT22;11761;51.324;4.590;2023-02-28T15:30:00;5.40;94.40
23186;DHT22;11761;51.324;4.590;2023-02-28T15:44:46;5.20;95.20
23186;DHT22;11761;51.324;4.590;2023-02-28T15:47:26;5.10;95.00
23186;DHT22;11761;51.324;4.590;2023-02-28T15:49:56;5.10;95.00
23186;DHT22;11761;51.324;4.590;2023-02-28T15:52:43;5.10;94.90
23186;DHT22;11761;51.324;4.590;2023-02-28T15:55:20;5.10;95.70
23186;DHT22;11761;51.324;4.590;2023-02-28T15:58:13;5.20;95.70
23186;DHT22;11761;51.324;4.590;2023-02-28T16:01:38;5.10;95.80
23186;DHT22;11761;51.324;4.590;2023-02-28T16:12:09;4.90;95.90
23186;DHT22;11761;51.324;4.590;2023-02-28T16:15:09;4.90;95.50
23186;DHT22;11761;51.324;4.590;2023-02-28T16:18:18;4.90;96.00
23186;DHT22;11761;51.324;4.590;2023-02-28T16:24:25;4.80;95.90
23186;DHT22;11761;51.324;4.590;2023-02-28T16:30:33;4.60;96.50
23186;DHT22;11761;51.324;4.590;2023-02-28T16:59:10;4.10;98.00
23186;DHT22;11761;51.324;4.590;2023-02-28T17:02:07;4.00;98.10
23186;DHT22;11761;51.324;4.590;2023-02-28T17:05:11;3.90;98.70
23186;DHT22;11761;51.324;4.590;2023-02-28T17:18:46;3.50;99.80
23186;DHT22;11761;51.324;4.590;2023-02-28T17:36:52;2.30;99.90
23186;DHT22;11761;51.324;4.590;2023-02-28T17:52:20;2.10;99.90
23186;DHT22;11761;51.324;4.590;2023-02-28T17:55:40;1.80;99.90
23186;DHT22;11761;51.324;4.590;2023-02-28T18:02:27;1.30;99.90
23186;DHT22;11761;51.324;4.590;2023-02-28T18:05:23;1.10;99.90
23186;DHT22;11761;51.324;4.590;2023-02-28T18:08:08;0.90;99.90
23186;DHT22;11761;51.324;4.590;2023-02-28T18:10:42;0.70;99.90
23186;DHT22;11761;51.324;4.590;2023-02-28T18:13:08;0.50;99.90
23186;DHT22;11761;51.324;4.590;2023-02-28T18:15:38;0.30;99.90
23186;DHT22;11761;51.324;4.590;2023-02-28T18:18:37;0.20;99.90
23186;DHT22;11761;51.324;4.590;2023-02-28T18:21:05;0.10;99.90
23186;DHT22;11761;51.324;4.590;2023-02-28T18:23:35;0.10;99.90
23186;DHT22;11761;51.324;4.590;2023-02-28T19:08:01;-0.80;99.90
23186;DHT22;11761;51.324;4.590;2023-02-28T19:10:29;-0.80;99.90
23186;DHT22;11761;51.324;4.590;2023-02-28T19:21:06;-0.90;99.90
23186;DHT22;11761;51.324;4.590;2023-02-28T20:19:54;-2.00;99.90
23186;DHT22;11761;51.324;4.590;2023-02-28T21:56:31;-2.70;99.90
23186;DHT22;11761;51.324;4.590;2023-02-28T21:58:59;-2.70;99.90
23186;DHT22;11761;51.324;4.590;2023-02-28T22:09:21;-2.70;99.90
23186;DHT22;11761;51.324;4.590;2023-02-28T22:19:16;-2.80;99.90
23186;DHT22;11761;51.324;4.590;2023-02-28T22:21:53;-2.80;99.90
23186;DHT22;11761;51.324;4.590;2023-02-28T22:24:24;-2.90;99.90
23186;DHT22;11761;51.324;4.590;2023-02-28T22:26:51;-2.80;99.90
23186;DHT22;11761;51.324;4.590;2023-02-28T22:29:17;-2.90;99.90
23186;DHT22;11761;51.324;4.590;2023-02-28T22:31:43;-3.00;99.90
23186;DHT22;11761;51.324;4.590;2023-02-28T22:34:11;-2.90;99.90
23186;DHT22;11761;51.324;4.590;2023-02-28T22:36:40;-2.90;99.90
23186;DHT22;11761;51.324;4.590;2023-02-28T22:39:06;-2.90;99.90
23186;DHT22;11761;51.324;4.590;2023-02-28T22:42:24;-2.90;99.90
23186;DHT22;11761;51.324;4.590;2023-02-28T22:52:51;-2.90;99.90
23186;DHT22;11761;51.324;4.590;2023-02-28T22:55:17;-2.90;99.90
23186;DHT22;11761;51.324;4.590;2023-02-28T22:57:43;-3.00;99.90
23186;DHT22;11761;51.324;4.590;2023-02-28T23:00:10;-3.00;99.90
23186;DHT22;11761;51.324;4.590;2023-02-28T23:02:46;-2.90;99.90
23186;DHT22;11761;51.324;4.590;2023-02-28T23:05:13;-2.90;99.90
23186;DHT22;11761;51.324;4.590;2023-02-28T23:07:40;-3.00;99.90
23186;DHT22;11761;51.324;4.590;2023-02-28T23:10:09;-3.00;99.90
23186;DHT22;11761;51.324;4.590;2023-02-28T23:12:36;-3.10;99.90
23186;DHT22;11761;51.324;4.590;2023-02-28T23:15:03;-3.10;99.90
